Medford, MA (02153)

8:39 PM EDT on August 29, 2015 (GMT -0400)
Emerson St. Across from Police Station | | Change Station
CLOSE
Current Station
Personal Weather Station
Location: Medford, MA
Elevation: 12 ft
Nearby Weather Stations

Elev 12 ft 42.42 °N, 71.11 °W | Updated 0 second ago

Partly Cloudy
Partly Cloudy
71.8 °F
Feels Like 75 °F
N
0.0
Wind Variable Wind from North
Gusts 0.0 mph

Today
High -- | Low -- °F
--% Chance of Precip.
Yesterday
High -- | Low -- °F
Precip. -- in
6:06 AM 7:23 PM
Full, 100% visible
Pressure 30.09 in
Visibility 10.0 miles
Clouds Few 16000 ft
Scattered Clouds 23000 ft
Mostly Cloudy 28000 ft
Heat Index 75 °F
Dew Point 60 °F
Humidity 67%
Rainfall 0.00 in
Snow Depth Not available.
UV 0 out of 12
Pollen 10.30 out of 12
Air Quality Not available.
Flu Activity Not available.
METAR KBOS 292354Z 25006KT 10SM FEW160 SCT230 BKN280 25/12 A3009 RMK AO2 SLP187 T02500122 10278 20250 53002
Pressure 30.09 in
Visibility 10.0 miles
Clouds Few 16000 ft
Scattered Clouds 23000 ft
Mostly Cloudy 28000 ft
Heat Index 75 °F
Dew Point 60 °F
Humidity 67%
Rainfall 0.00 in
Snow Depth Not available.
UV 0 out of 12
Pollen 10.30 out of 12
Air Quality Not available.
Flu Activity Not available.
METAR KBOS 292354Z 25006KT 10SM FEW160 SCT230 BKN280 25/12 A3009 RMK AO2 SLP187 T02500122 10278 20250 53002

10-Day Weather Forecast

×

Almanac

Astronomy

Aug. 29, 2015 Rise Set
Actual Time
Civil Twilight
Nautical Twilight
Astronomical Twilight
Moon
Length of Visible Light
Length of Day
Tomorrow will be .
, % of the Moon is Illuminated

Today's Extremes

State Highs State Lows

Community

WunderPhotos

Upload Photos

1,850,807 photos uploaded!

WunderBlogs® & News

Nearby

Air Quality

  Air Quality AQ Index Pollutant
Not available.

Snow Depth

Station Depth Elevation

Earthquake Activity

City Distance Mag. Time & Date
Minimum magnitude displayed is 2.5.

Coastal Water Temperatures

Place Temperature

Stations

Nearby Weather Stations

Station Location Temp. Windchill Dew Point Humidity Wind Precip. Elev Updated Type